sensor_id;sensor_type;location;lat;lon;timestamp;P1;durP1;ratioP1;P2;durP2;ratioP2
14474;SDS011;7323;50.848;4.334;2023-03-11T00:00:36;9.00;;;4.23;;
14474;SDS011;7323;50.848;4.334;2023-03-11T00:03:05;8.50;;;3.67;;
14474;SDS011;7323;50.848;4.334;2023-03-11T00:05:36;6.60;;;2.83;;
14474;SDS011;7323;50.848;4.334;2023-03-11T00:08:04;8.37;;;3.30;;
14474;SDS011;7323;50.848;4.334;2023-03-11T00:10:33;8.30;;;2.93;;
14474;SDS011;7323;50.848;4.334;2023-03-11T00:13:03;6.03;;;2.97;;
14474;SDS011;7323;50.848;4.334;2023-03-11T00:15:40;5.87;;;2.70;;
14474;SDS011;7323;50.848;4.334;2023-03-11T00:18:13;7.37;;;3.10;;
14474;SDS011;7323;50.848;4.334;2023-03-11T00:20:40;9.27;;;3.23;;
14474;SDS011;7323;50.848;4.334;2023-03-11T00:23:08;10.27;;;3.17;;
14474;SDS011;7323;50.848;4.334;2023-03-11T00:25:37;6.30;;;2.80;;
14474;SDS011;7323;50.848;4.334;2023-03-11T00:28:05;5.70;;;2.60;;
14474;SDS011;7323;50.848;4.334;2023-03-11T00:30:35;5.83;;;2.67;;
14474;SDS011;7323;50.848;4.334;2023-03-11T00:33:01;6.20;;;2.53;;
14474;SDS011;7323;50.848;4.334;2023-03-11T00:35:29;7.73;;;2.90;;
14474;SDS011;7323;50.848;4.334;2023-03-11T00:37:57;5.93;;;2.87;;
14474;SDS011;7323;50.848;4.334;2023-03-11T00:40:25;6.73;;;2.43;;
14474;SDS011;7323;50.848;4.334;2023-03-11T00:42:54;5.63;;;2.67;;
14474;SDS011;7323;50.848;4.334;2023-03-11T00:45:20;4.23;;;2.47;;
14474;SDS011;7323;50.848;4.334;2023-03-11T00:47:45;5.23;;;2.57;;
14474;SDS011;7323;50.848;4.334;2023-03-11T00:50:15;6.83;;;2.53;;
14474;SDS011;7323;50.848;4.334;2023-03-11T00:52:44;5.53;;;2.37;;
14474;SDS011;7323;50.848;4.334;2023-03-11T00:55:12;7.17;;;2.60;;
14474;SDS011;7323;50.848;4.334;2023-03-11T00:57:40;6.17;;;2.53;;
14474;SDS011;7323;50.848;4.334;2023-03-11T01:00:06;7.90;;;2.53;;
14474;SDS011;7323;50.848;4.334;2023-03-11T01:02:36;9.97;;;2.50;;
14474;SDS011;7323;50.848;4.334;2023-03-11T01:05:03;8.93;;;2.87;;
14474;SDS011;7323;50.848;4.334;2023-03-11T01:07:30;8.17;;;2.90;;
14474;SDS011;7323;50.848;4.334;2023-03-11T01:09:56;7.83;;;2.87;;
14474;SDS011;7323;50.848;4.334;2023-03-11T01:12:22;9.40;;;2.90;;
14474;SDS011;7323;50.848;4.334;2023-03-11T01:14:48;5.10;;;2.53;;
14474;SDS011;7323;50.848;4.334;2023-03-11T01:17:13;5.00;;;3.17;;
14474;SDS011;7323;50.848;4.334;2023-03-11T01:19:40;8.93;;;3.00;;
14474;SDS011;7323;50.848;4.334;2023-03-11T01:22:06;6.77;;;3.30;;
14474;SDS011;7323;50.848;4.334;2023-03-11T01:24:31;8.00;;;4.10;;
14474;SDS011;7323;50.848;4.334;2023-03-11T01:26:59;8.00;;;3.30;;
14474;SDS011;7323;50.848;4.334;2023-03-11T01:29:24;8.23;;;3.57;;
14474;SDS011;7323;50.848;4.334;2023-03-11T01:31:50;7.83;;;3.20;;
14474;SDS011;7323;50.848;4.334;2023-03-11T01:34:16;7.50;;;3.30;;
14474;SDS011;7323;50.848;4.334;2023-03-11T01:36:41;8.90;;;3.83;;
14474;SDS011;7323;50.848;4.334;2023-03-11T01:39:07;10.07;;;4.40;;
14474;SDS011;7323;50.848;4.334;2023-03-11T01:41:34;7.20;;;4.20;;
14474;SDS011;7323;50.848;4.334;2023-03-11T01:43:59;8.47;;;3.90;;
14474;SDS011;7323;50.848;4.334;2023-03-11T01:47:27;5.80;;;3.33;;
14474;SDS011;7323;50.848;4.334;2023-03-11T01:49:18;11.53;;;4.27;;
14474;SDS011;7323;50.848;4.334;2023-03-11T01:51:46;8.67;;;3.50;;
14474;SDS011;7323;50.848;4.334;2023-03-11T01:54:17;12.53;;;4.37;;
14474;SDS011;7323;50.848;4.334;2023-03-11T01:56:49;11.33;;;4.00;;
14474;SDS011;7323;50.848;4.334;2023-03-11T01:59:21;9.50;;;3.80;;
14474;SDS011;7323;50.848;4.334;2023-03-11T02:02:13;8.00;;;3.47;;
14474;SDS011;7323;50.848;4.334;2023-03-11T02:04:44;10.30;;;3.63;;
14474;SDS011;7323;50.848;4.334;2023-03-11T02:07:10;7.80;;;3.27;;
14474;SDS011;7323;50.848;4.334;2023-03-11T02:09:38;9.07;;;4.13;;
14474;SDS011;7323;50.848;4.334;2023-03-11T02:12:04;8.33;;;3.40;;
14474;SDS011;7323;50.848;4.334;2023-03-11T02:14:31;10.97;;;3.77;;
14474;SDS011;7323;50.848;4.334;2023-03-11T02:17:02;9.20;;;3.57;;
14474;SDS011;7323;50.848;4.334;2023-03-11T02:25:57;8.00;;;3.80;;
14474;SDS011;7323;50.848;4.334;2023-03-11T02:28:30;8.10;;;4.10;;
14474;SDS011;7323;50.848;4.334;2023-03-11T02:30:57;9.40;;;3.67;;
14474;SDS011;7323;50.848;4.334;2023-03-11T02:33:23;8.13;;;3.43;;
14474;SDS011;7323;50.848;4.334;2023-03-11T02:35:55;8.67;;;3.70;;
14474;SDS011;7323;50.848;4.334;2023-03-11T02:38:22;9.33;;;4.07;;
14474;SDS011;7323;50.848;4.334;2023-03-11T02:41:01;12.13;;;4.50;;
14474;SDS011;7323;50.848;4.334;2023-03-11T02:43:36;10.27;;;4.33;;
14474;SDS011;7323;50.848;4.334;2023-03-11T02:46:08;6.47;;;3.27;;
14474;SDS011;7323;50.848;4.334;2023-03-11T02:48:36;10.67;;;4.00;;
14474;SDS011;7323;50.848;4.334;2023-03-11T02:51:03;10.10;;;4.33;;
14474;SDS011;7323;50.848;4.334;2023-03-11T02:53:31;9.10;;;4.00;;
14474;SDS011;7323;50.848;4.334;2023-03-11T02:56:01;8.87;;;3.63;;
14474;SDS011;7323;50.848;4.334;2023-03-11T02:58:27;13.67;;;4.20;;
14474;SDS011;7323;50.848;4.334;2023-03-11T03:03:35;8.77;;;3.93;;
14474;SDS011;7323;50.848;4.334;2023-03-11T03:06:03;10.07;;;3.67;;
14474;SDS011;7323;50.848;4.334;2023-03-11T03:08:40;10.33;;;3.80;;
14474;SDS011;7323;50.848;4.334;2023-03-11T03:11:08;10.83;;;4.70;;
14474;SDS011;7323;50.848;4.334;2023-03-11T03:13:35;9.20;;;3.77;;
14474;SDS011;7323;50.848;4.334;2023-03-11T03:16:02;8.23;;;4.07;;
14474;SDS011;7323;50.848;4.334;2023-03-11T03:18:28;9.37;;;4.23;;
14474;SDS011;7323;50.848;4.334;2023-03-11T03:20:54;14.47;;;4.80;;
14474;SDS011;7323;50.848;4.334;2023-03-11T03:23:20;9.53;;;4.30;;
14474;SDS011;7323;50.848;4.334;2023-03-11T03:25:46;9.17;;;4.43;;
14474;SDS011;7323;50.848;4.334;2023-03-11T03:28:12;13.83;;;4.47;;
14474;SDS011;7323;50.848;4.334;2023-03-11T03:30:40;9.00;;;4.30;;
14474;SDS011;7323;50.848;4.334;2023-03-11T03:35:34;8.27;;;3.80;;
14474;SDS011;7323;50.848;4.334;2023-03-11T03:38:05;9.73;;;3.97;;
14474;SDS011;7323;50.848;4.334;2023-03-11T03:40:32;10.07;;;3.83;;
14474;SDS011;7323;50.848;4.334;2023-03-11T03:42:59;7.37;;;4.00;;
14474;SDS011;7323;50.848;4.334;2023-03-11T03:45:26;8.27;;;4.00;;
14474;SDS011;7323;50.848;4.334;2023-03-11T03:47:52;12.10;;;3.70;;
14474;SDS011;7323;50.848;4.334;2023-03-11T03:50:17;10.73;;;3.83;;
14474;SDS011;7323;50.848;4.334;2023-03-11T03:52:43;8.43;;;4.03;;
14474;SDS011;7323;50.848;4.334;2023-03-11T03:55:09;10.50;;;3.97;;
14474;SDS011;7323;50.848;4.334;2023-03-11T03:57:34;9.83;;;3.43;;
14474;SDS011;7323;50.848;4.334;2023-03-11T04:00:03;11.70;;;3.93;;
14474;SDS011;7323;50.848;4.334;2023-03-11T04:02:29;8.30;;;3.70;;
14474;SDS011;7323;50.848;4.334;2023-03-11T04:04:55;12.33;;;4.20;;
14474;SDS011;7323;50.848;4.334;2023-03-11T04:07:21;12.57;;;4.00;;
14474;SDS011;7323;50.848;4.334;2023-03-11T04:09:48;8.80;;;3.73;;
14474;SDS011;7323;50.848;4.334;2023-03-11T04:12:14;9.37;;;4.20;;
14474;SDS011;7323;50.848;4.334;2023-03-11T04:14:42;7.70;;;4.00;;
14474;SDS011;7323;50.848;4.334;2023-03-11T04:17:12;9.43;;;3.73;;
14474;SDS011;7323;50.848;4.334;2023-03-11T04:19:38;11.47;;;4.10;;
14474;SDS011;7323;50.848;4.334;2023-03-11T04:22:03;9.07;;;4.13;;
14474;SDS011;7323;50.848;4.334;2023-03-11T04:26:58;7.57;;;3.90;;
14474;SDS011;7323;50.848;4.334;2023-03-11T04:29:23;11.80;;;4.10;;
14474;SDS011;7323;50.848;4.334;2023-03-11T04:31:49;7.47;;;4.27;;
14474;SDS011;7323;50.848;4.334;2023-03-11T04:34:16;9.40;;;3.87;;
14474;SDS011;7323;50.848;4.334;2023-03-11T04:36:42;11.43;;;4.53;;
14474;SDS011;7323;50.848;4.334;2023-03-11T04:39:08;12.17;;;4.30;;
14474;SDS011;7323;50.848;4.334;2023-03-11T04:41:33;12.87;;;3.80;;
14474;SDS011;7323;50.848;4.334;2023-03-11T04:43:59;12.63;;;4.30;;
14474;SDS011;7323;50.848;4.334;2023-03-11T04:46:25;12.50;;;3.80;;
14474;SDS011;7323;50.848;4.334;2023-03-11T04:48:51;8.03;;;3.90;;
14474;SDS011;7323;50.848;4.334;2023-03-11T04:51:16;10.47;;;4.10;;
14474;SDS011;7323;50.848;4.334;2023-03-11T04:53:44;8.33;;;4.73;;
14474;SDS011;7323;50.848;4.334;2023-03-11T04:56:10;7.13;;;4.57;;
14474;SDS011;7323;50.848;4.334;2023-03-11T04:58:35;9.07;;;4.50;;
14474;SDS011;7323;50.848;4.334;2023-03-11T05:01:01;8.67;;;3.70;;
14474;SDS011;7323;50.848;4.334;2023-03-11T05:03:27;9.47;;;3.80;;
14474;SDS011;7323;50.848;4.334;2023-03-11T05:05:52;13.40;;;4.70;;
14474;SDS011;7323;50.848;4.334;2023-03-11T05:08:21;13.60;;;4.40;;
14474;SDS011;7323;50.848;4.334;2023-03-11T05:10:47;10.03;;;4.50;;
14474;SDS011;7323;50.848;4.334;2023-03-11T05:13:14;10.13;;;3.97;;
14474;SDS011;7323;50.848;4.334;2023-03-11T05:15:41;11.27;;;3.90;;
14474;SDS011;7323;50.848;4.334;2023-03-11T05:18:08;9.73;;;4.17;;
14474;SDS011;7323;50.848;4.334;2023-03-11T05:20:34;10.30;;;4.50;;
14474;SDS011;7323;50.848;4.334;2023-03-11T05:23:01;7.97;;;4.73;;
14474;SDS011;7323;50.848;4.334;2023-03-11T05:25:27;10.83;;;4.57;;
14474;SDS011;7323;50.848;4.334;2023-03-11T05:27:53;9.43;;;4.00;;
14474;SDS011;7323;50.848;4.334;2023-03-11T05:30:20;8.87;;;4.53;;
14474;SDS011;7323;50.848;4.334;2023-03-11T05:32:45;13.37;;;5.30;;
14474;SDS011;7323;50.848;4.334;2023-03-11T05:35:12;8.33;;;4.40;;
14474;SDS011;7323;50.848;4.334;2023-03-11T05:37:37;9.23;;;4.90;;
14474;SDS011;7323;50.848;4.334;2023-03-11T05:40:04;9.23;;;5.10;;
14474;SDS011;7323;50.848;4.334;2023-03-11T05:42:33;13.13;;;4.90;;
14474;SDS011;7323;50.848;4.334;2023-03-11T05:45:02;7.97;;;4.70;;
14474;SDS011;7323;50.848;4.334;2023-03-11T05:47:31;9.93;;;4.33;;
14474;SDS011;7323;50.848;4.334;2023-03-11T05:50:00;11.93;;;5.27;;
14474;SDS011;7323;50.848;4.334;2023-03-11T05:55:00;8.93;;;4.63;;
14474;SDS011;7323;50.848;4.334;2023-03-11T05:57:25;11.57;;;4.63;;
14474;SDS011;7323;50.848;4.334;2023-03-11T05:59:51;9.00;;;4.20;;
14474;SDS011;7323;50.848;4.334;2023-03-11T06:02:17;8.30;;;4.50;;
14474;SDS011;7323;50.848;4.334;2023-03-11T06:04:42;7.33;;;4.80;;
14474;SDS011;7323;50.848;4.334;2023-03-11T06:07:08;9.37;;;4.40;;
14474;SDS011;7323;50.848;4.334;2023-03-11T06:09:36;8.13;;;4.50;;
14474;SDS011;7323;50.848;4.334;2023-03-11T06:12:03;12.83;;;5.07;;
14474;SDS011;7323;50.848;4.334;2023-03-11T06:14:30;10.23;;;4.83;;
14474;SDS011;7323;50.848;4.334;2023-03-11T06:16:57;9.70;;;5.00;;
14474;SDS011;7323;50.848;4.334;2023-03-11T06:19:23;14.90;;;5.40;;
14474;SDS011;7323;50.848;4.334;2023-03-11T06:21:50;10.40;;;5.10;;
14474;SDS011;7323;50.848;4.334;2023-03-11T06:24:16;8.13;;;5.10;;
14474;SDS011;7323;50.848;4.334;2023-03-11T06:26:42;12.57;;;5.47;;
14474;SDS011;7323;50.848;4.334;2023-03-11T06:29:10;9.97;;;4.90;;
14474;SDS011;7323;50.848;4.334;2023-03-11T06:31:38;8.83;;;5.03;;
14474;SDS011;7323;50.848;4.334;2023-03-11T06:34:04;9.03;;;5.50;;
14474;SDS011;7323;50.848;4.334;2023-03-11T06:36:30;10.23;;;5.00;;
14474;SDS011;7323;50.848;4.334;2023-03-11T06:38:57;13.10;;;5.27;;
14474;SDS011;7323;50.848;4.334;2023-03-11T06:41:24;8.37;;;4.77;;
14474;SDS011;7323;50.848;4.334;2023-03-11T06:43:50;10.10;;;5.10;;
14474;SDS011;7323;50.848;4.334;2023-03-11T06:46:18;12.03;;;5.60;;
14474;SDS011;7323;50.848;4.334;2023-03-11T06:48:47;6.93;;;4.67;;
14474;SDS011;7323;50.848;4.334;2023-03-11T06:51:16;11.23;;;6.23;;
14474;SDS011;7323;50.848;4.334;2023-03-11T06:53:46;8.40;;;4.90;;
14474;SDS011;7323;50.848;4.334;2023-03-11T06:56:15;10.67;;;5.63;;
14474;SDS011;7323;50.848;4.334;2023-03-11T06:58:42;10.97;;;5.80;;
14474;SDS011;7323;50.848;4.334;2023-03-11T07:01:13;9.23;;;5.10;;
14474;SDS011;7323;50.848;4.334;2023-03-11T07:03:40;11.07;;;4.33;;
14474;SDS011;7323;50.848;4.334;2023-03-11T07:06:10;8.80;;;5.10;;
14474;SDS011;7323;50.848;4.334;2023-03-11T07:08:41;10.03;;;5.07;;
14474;SDS011;7323;50.848;4.334;2023-03-11T07:11:09;12.40;;;5.63;;
14474;SDS011;7323;50.848;4.334;2023-03-11T07:13:38;8.50;;;5.30;;
14474;SDS011;7323;50.848;4.334;2023-03-11T07:16:07;9.73;;;5.17;;
14474;SDS011;7323;50.848;4.334;2023-03-11T07:18:42;9.87;;;5.40;;
14474;SDS011;7323;50.848;4.334;2023-03-11T07:21:10;10.53;;;5.13;;
14474;SDS011;7323;50.848;4.334;2023-03-11T07:23:39;9.50;;;5.23;;
14474;SDS011;7323;50.848;4.334;2023-03-11T07:26:07;15.13;;;9.00;;
14474;SDS011;7323;50.848;4.334;2023-03-11T07:28:34;11.53;;;7.20;;
14474;SDS011;7323;50.848;4.334;2023-03-11T07:30:59;11.40;;;6.63;;
14474;SDS011;7323;50.848;4.334;2023-03-11T07:33:31;7.87;;;4.63;;
14474;SDS011;7323;50.848;4.334;2023-03-11T07:35:58;11.10;;;5.10;;
14474;SDS011;7323;50.848;4.334;2023-03-11T07:38:27;12.43;;;5.00;;
14474;SDS011;7323;50.848;4.334;2023-03-11T07:40:59;10.43;;;4.80;;
14474;SDS011;7323;50.848;4.334;2023-03-11T07:43:27;10.80;;;5.53;;
14474;SDS011;7323;50.848;4.334;2023-03-11T07:46:00;12.20;;;5.53;;
14474;SDS011;7323;50.848;4.334;2023-03-11T07:48:30;6.43;;;4.87;;
14474;SDS011;7323;50.848;4.334;2023-03-11T07:51:05;11.50;;;5.13;;
14474;SDS011;7323;50.848;4.334;2023-03-11T07:53:59;8.73;;;4.73;;
14474;SDS011;7323;50.848;4.334;2023-03-11T07:56:27;7.53;;;5.00;;
14474;SDS011;7323;50.848;4.334;2023-03-11T07:58:56;12.67;;;5.30;;
14474;SDS011;7323;50.848;4.334;2023-03-11T08:01:23;10.07;;;4.60;;
14474;SDS011;7323;50.848;4.334;2023-03-11T08:03:51;8.37;;;5.37;;
14474;SDS011;7323;50.848;4.334;2023-03-11T08:06:26;8.00;;;5.17;;
14474;SDS011;7323;50.848;4.334;2023-03-11T08:11:26;8.87;;;5.77;;
14474;SDS011;7323;50.848;4.334;2023-03-11T08:13:55;13.33;;;5.90;;
14474;SDS011;7323;50.848;4.334;2023-03-11T08:16:23;11.70;;;5.50;;
14474;SDS011;7323;50.848;4.334;2023-03-11T08:18:50;12.87;;;6.80;;
14474;SDS011;7323;50.848;4.334;2023-03-11T08:21:18;11.90;;;8.00;;
14474;SDS011;7323;50.848;4.334;2023-03-11T08:23:48;11.03;;;7.30;;
14474;SDS011;7323;50.848;4.334;2023-03-11T08:26:15;14.80;;;8.13;;
14474;SDS011;7323;50.848;4.334;2023-03-11T08:28:43;13.30;;;7.30;;
14474;SDS011;7323;50.848;4.334;2023-03-11T08:31:19;17.03;;;7.90;;
14474;SDS011;7323;50.848;4.334;2023-03-11T08:33:47;13.03;;;7.60;;
14474;SDS011;7323;50.848;4.334;2023-03-11T08:36:16;15.73;;;6.57;;
14474;SDS011;7323;50.848;4.334;2023-03-11T08:38:45;11.80;;;5.73;;
14474;SDS011;7323;50.848;4.334;2023-03-11T08:43:49;10.20;;;5.43;;
14474;SDS011;7323;50.848;4.334;2023-03-11T08:46:24;13.40;;;5.67;;
14474;SDS011;7323;50.848;4.334;2023-03-11T08:48:58;12.57;;;5.13;;
14474;SDS011;7323;50.848;4.334;2023-03-11T08:51:25;11.40;;;5.73;;
14474;SDS011;7323;50.848;4.334;2023-03-11T08:53:51;10.13;;;5.47;;
14474;SDS011;7323;50.848;4.334;2023-03-11T08:56:17;10.43;;;5.43;;
14474;SDS011;7323;50.848;4.334;2023-03-11T08:58:44;9.20;;;5.20;;
14474;SDS011;7323;50.848;4.334;2023-03-11T09:01:11;12.83;;;5.30;;
14474;SDS011;7323;50.848;4.334;2023-03-11T09:03:38;10.60;;;5.00;;
14474;SDS011;7323;50.848;4.334;2023-03-11T09:06:05;9.30;;;5.07;;
14474;SDS011;7323;50.848;4.334;2023-03-11T09:08:33;9.43;;;5.47;;
14474;SDS011;7323;50.848;4.334;2023-03-11T09:10:59;14.10;;;5.10;;
14474;SDS011;7323;50.848;4.334;2023-03-11T09:13:25;12.47;;;5.10;;
14474;SDS011;7323;50.848;4.334;2023-03-11T09:15:51;10.47;;;5.00;;
14474;SDS011;7323;50.848;4.334;2023-03-11T09:18:21;8.23;;;4.27;;
14474;SDS011;7323;50.848;4.334;2023-03-11T09:20:47;14.77;;;5.37;;
14474;SDS011;7323;50.848;4.334;2023-03-11T09:23:14;9.17;;;4.03;;
14474;SDS011;7323;50.848;4.334;2023-03-11T09:25:41;9.87;;;5.03;;
14474;SDS011;7323;50.848;4.334;2023-03-11T09:28:08;8.60;;;4.47;;
14474;SDS011;7323;50.848;4.334;2023-03-11T09:30:34;6.87;;;3.83;;
14474;SDS011;7323;50.848;4.334;2023-03-11T09:33:00;7.93;;;3.43;;
14474;SDS011;7323;50.848;4.334;2023-03-11T09:35:25;9.67;;;3.37;;
14474;SDS011;7323;50.848;4.334;2023-03-11T09:37:51;8.73;;;3.10;;
14474;SDS011;7323;50.848;4.334;2023-03-11T09:40:20;8.40;;;3.60;;
14474;SDS011;7323;50.848;4.334;2023-03-11T09:49:20;5.60;;;2.83;;
14474;SDS011;7323;50.848;4.334;2023-03-11T09:52:08;7.47;;;2.80;;
14474;SDS011;7323;50.848;4.334;2023-03-11T09:54:43;7.43;;;2.67;;
14474;SDS011;7323;50.848;4.334;2023-03-11T09:57:27;7.20;;;2.47;;
14474;SDS011;7323;50.848;4.334;2023-03-11T09:59:59;7.70;;;2.77;;
14474;SDS011;7323;50.848;4.334;2023-03-11T10:02:28;7.83;;;2.33;;
14474;SDS011;7323;50.848;4.334;2023-03-11T10:07:56;8.47;;;2.50;;
14474;SDS011;7323;50.848;4.334;2023-03-11T10:10:38;6.93;;;2.00;;
14474;SDS011;7323;50.848;4.334;2023-03-11T10:13:12;4.27;;;2.33;;
14474;SDS011;7323;50.848;4.334;2023-03-11T10:16:10;8.57;;;2.10;;
14474;SDS011;7323;50.848;4.334;2023-03-11T10:18:46;6.30;;;2.40;;
14474;SDS011;7323;50.848;4.334;2023-03-11T10:27:27;6.90;;;2.90;;
14474;SDS011;7323;50.848;4.334;2023-03-11T10:33:01;8.37;;;2.10;;
14474;SDS011;7323;50.848;4.334;2023-03-11T10:35:43;9.20;;;2.80;;
14474;SDS011;7323;50.848;4.334;2023-03-11T10:40:43;7.17;;;2.57;;
14474;SDS011;7323;50.848;4.334;2023-03-11T10:43:13;4.63;;;2.10;;
14474;SDS011;7323;50.848;4.334;2023-03-11T10:45:54;4.53;;;2.10;;
14474;SDS011;7323;50.848;4.334;2023-03-11T10:48:20;6.23;;;2.47;;
14474;SDS011;7323;50.848;4.334;2023-03-11T10:50:56;7.70;;;2.50;;
14474;SDS011;7323;50.848;4.334;2023-03-11T10:53:27;6.43;;;2.47;;
14474;SDS011;7323;50.848;4.334;2023-03-11T10:55:55;6.63;;;2.10;;
14474;SDS011;7323;50.848;4.334;2023-03-11T10:58:31;6.47;;;2.43;;
14474;SDS011;7323;50.848;4.334;2023-03-11T11:01:04;7.70;;;2.63;;
14474;SDS011;7323;50.848;4.334;2023-03-11T11:03:40;4.00;;;2.03;;
14474;SDS011;7323;50.848;4.334;2023-03-11T11:06:09;7.07;;;2.60;;
14474;SDS011;7323;50.848;4.334;2023-03-11T11:08:44;7.20;;;2.60;;
14474;SDS011;7323;50.848;4.334;2023-03-11T11:11:20;6.07;;;2.13;;
14474;SDS011;7323;50.848;4.334;2023-03-11T11:13:57;7.63;;;2.27;;
14474;SDS011;7323;50.848;4.334;2023-03-11T11:16:24;6.27;;;2.20;;
14474;SDS011;7323;50.848;4.334;2023-03-11T11:19:07;6.47;;;2.07;;
14474;SDS011;7323;50.848;4.334;2023-03-11T11:21:37;4.43;;;1.97;;
14474;SDS011;7323;50.848;4.334;2023-03-11T11:24:19;4.33;;;1.90;;
14474;SDS011;7323;50.848;4.334;2023-03-11T11:27:03;9.73;;;2.17;;
14474;SDS011;7323;50.848;4.334;2023-03-11T11:29:36;6.57;;;2.30;;
14474;SDS011;7323;50.848;4.334;2023-03-11T11:35:00;6.70;;;2.37;;
14474;SDS011;7323;50.848;4.334;2023-03-11T11:37:29;7.50;;;2.27;;
14474;SDS011;7323;50.848;4.334;2023-03-11T11:39:59;5.50;;;2.30;;
14474;SDS011;7323;50.848;4.334;2023-03-11T11:42:39;6.63;;;2.47;;
14474;SDS011;7323;50.848;4.334;2023-03-11T11:45:16;6.03;;;2.37;;
14474;SDS011;7323;50.848;4.334;2023-03-11T11:47:51;10.07;;;2.40;;
14474;SDS011;7323;50.848;4.334;2023-03-11T11:50:27;6.73;;;2.60;;
14474;SDS011;7323;50.848;4.334;2023-03-11T11:53:06;5.83;;;2.47;;
14474;SDS011;7323;50.848;4.334;2023-03-11T11:55:49;11.57;;;2.70;;
14474;SDS011;7323;50.848;4.334;2023-03-11T11:58:18;8.17;;;2.30;;
14474;SDS011;7323;50.848;4.334;2023-03-11T12:06:19;7.33;;;2.20;;
14474;SDS011;7323;50.848;4.334;2023-03-11T12:12:31;5.53;;;1.83;;
14474;SDS011;7323;50.848;4.334;2023-03-11T12:18:10;11.60;;;2.90;;
14474;SDS011;7323;50.848;4.334;2023-03-11T12:20:43;6.33;;;2.60;;
14474;SDS011;7323;50.848;4.334;2023-03-11T12:23:18;4.97;;;2.07;;
14474;SDS011;7323;50.848;4.334;2023-03-11T12:28:50;6.77;;;2.47;;
14474;SDS011;7323;50.848;4.334;2023-03-11T12:31:17;8.47;;;2.07;;
14474;SDS011;7323;50.848;4.334;2023-03-11T12:33:45;7.90;;;2.40;;
14474;SDS011;7323;50.848;4.334;2023-03-11T12:36:27;8.47;;;2.30;;
14474;SDS011;7323;50.848;4.334;2023-03-11T12:38:56;8.13;;;3.03;;
14474;SDS011;7323;50.848;4.334;2023-03-11T12:44:19;4.60;;;2.10;;
14474;SDS011;7323;50.848;4.334;2023-03-11T12:46:59;6.47;;;2.90;;
14474;SDS011;7323;50.848;4.334;2023-03-11T12:49:28;4.70;;;2.27;;
14474;SDS011;7323;50.848;4.334;2023-03-11T12:52:00;7.50;;;2.63;;
14474;SDS011;7323;50.848;4.334;2023-03-11T12:54:36;6.70;;;2.00;;
14474;SDS011;7323;50.848;4.334;2023-03-11T12:57:18;6.37;;;2.27;;
14474;SDS011;7323;50.848;4.334;2023-03-11T13:08:20;4.87;;;2.27;;
14474;SDS011;7323;50.848;4.334;2023-03-11T13:10:53;5.53;;;2.87;;
14474;SDS011;7323;50.848;4.334;2023-03-11T13:15:56;4.90;;;2.03;;
14474;SDS011;7323;50.848;4.334;2023-03-11T13:18:47;5.70;;;2.30;;
14474;SDS011;7323;50.848;4.334;2023-03-11T13:24:38;9.87;;;2.70;;
14474;SDS011;7323;50.848;4.334;2023-03-11T13:38:10;6.23;;;1.63;;
14474;SDS011;7323;50.848;4.334;2023-03-11T13:40:56;4.77;;;1.50;;
14474;SDS011;7323;50.848;4.334;2023-03-11T13:43:25;5.37;;;2.07;;
14474;SDS011;7323;50.848;4.334;2023-03-11T13:45:58;4.07;;;1.53;;
14474;SDS011;7323;50.848;4.334;2023-03-11T13:48:32;3.83;;;1.70;;
14474;SDS011;7323;50.848;4.334;2023-03-11T13:56:20;5.13;;;2.00;;
14474;SDS011;7323;50.848;4.334;2023-03-11T13:58:49;6.83;;;1.57;;
14474;SDS011;7323;50.848;4.334;2023-03-11T14:01:16;5.63;;;1.83;;
14474;SDS011;7323;50.848;4.334;2023-03-11T14:03:44;3.50;;;1.53;;
14474;SDS011;7323;50.848;4.334;2023-03-11T14:06:12;2.90;;;1.30;;
14474;SDS011;7323;50.848;4.334;2023-03-11T14:08:40;5.67;;;1.97;;
14474;SDS011;7323;50.848;4.334;2023-03-11T14:13:41;6.00;;;1.80;;
14474;SDS011;7323;50.848;4.334;2023-03-11T14:16:17;4.70;;;2.10;;
14474;SDS011;7323;50.848;4.334;2023-03-11T14:19:00;3.27;;;1.43;;
14474;SDS011;7323;50.848;4.334;2023-03-11T14:21:26;3.70;;;1.27;;
14474;SDS011;7323;50.848;4.334;2023-03-11T14:23:52;3.87;;;1.27;;
14474;SDS011;7323;50.848;4.334;2023-03-11T14:26:20;3.40;;;1.20;;
14474;SDS011;7323;50.848;4.334;2023-03-11T14:29:17;3.40;;;1.57;;
14474;SDS011;7323;50.848;4.334;2023-03-11T14:31:45;3.47;;;1.20;;
14474;SDS011;7323;50.848;4.334;2023-03-11T14:34:15;3.30;;;1.20;;
14474;SDS011;7323;50.848;4.334;2023-03-11T14:36:47;3.33;;;1.20;;
14474;SDS011;7323;50.848;4.334;2023-03-11T14:39:26;5.30;;;1.23;;
14474;SDS011;7323;50.848;4.334;2023-03-11T14:44:39;6.30;;;1.70;;
14474;SDS011;7323;50.848;4.334;2023-03-11T14:47:08;3.13;;;1.30;;
14474;SDS011;7323;50.848;4.334;2023-03-11T14:49:40;3.17;;;1.30;;
14474;SDS011;7323;50.848;4.334;2023-03-11T14:52:14;3.47;;;1.30;;
14474;SDS011;7323;50.848;4.334;2023-03-11T14:54:46;5.17;;;1.60;;
14474;SDS011;7323;50.848;4.334;2023-03-11T14:57:32;6.37;;;1.40;;
14474;SDS011;7323;50.848;4.334;2023-03-11T15:00:11;4.13;;;1.30;;
14474;SDS011;7323;50.848;4.334;2023-03-11T15:02:54;5.20;;;1.40;;
14474;SDS011;7323;50.848;4.334;2023-03-11T15:05:37;4.07;;;1.10;;
14474;SDS011;7323;50.848;4.334;2023-03-11T15:08:10;2.33;;;1.30;;
14474;SDS011;7323;50.848;4.334;2023-03-11T15:10:36;3.60;;;1.30;;
14474;SDS011;7323;50.848;4.334;2023-03-11T15:13:09;4.63;;;1.30;;
14474;SDS011;7323;50.848;4.334;2023-03-11T15:15:39;3.50;;;1.23;;
14474;SDS011;7323;50.848;4.334;2023-03-11T15:18:26;6.33;;;1.60;;
14474;SDS011;7323;50.848;4.334;2023-03-11T15:23:38;5.37;;;1.57;;
14474;SDS011;7323;50.848;4.334;2023-03-11T15:26:15;4.17;;;2.00;;
14474;SDS011;7323;50.848;4.334;2023-03-11T15:28:44;4.63;;;1.60;;
14474;SDS011;7323;50.848;4.334;2023-03-11T15:31:14;4.47;;;1.50;;
14474;SDS011;7323;50.848;4.334;2023-03-11T15:33:40;4.17;;;1.43;;
14474;SDS011;7323;50.848;4.334;2023-03-11T15:36:25;4.73;;;1.30;;
14474;SDS011;7323;50.848;4.334;2023-03-11T15:44:24;3.07;;;1.27;;
14474;SDS011;7323;50.848;4.334;2023-03-11T15:46:53;5.57;;;1.53;;
14474;SDS011;7323;50.848;4.334;2023-03-11T15:49:19;6.30;;;1.73;;
14474;SDS011;7323;50.848;4.334;2023-03-11T15:51:45;5.57;;;2.00;;
14474;SDS011;7323;50.848;4.334;2023-03-11T15:54:11;5.23;;;1.33;;
14474;SDS011;7323;50.848;4.334;2023-03-11T15:56:38;6.27;;;1.80;;
14474;SDS011;7323;50.848;4.334;2023-03-11T15:59:05;8.20;;;1.80;;
14474;SDS011;7323;50.848;4.334;2023-03-11T16:01:31;4.57;;;1.53;;
14474;SDS011;7323;50.848;4.334;2023-03-11T16:03:57;4.57;;;1.67;;
14474;SDS011;7323;50.848;4.334;2023-03-11T16:06:23;6.30;;;1.90;;
14474;SDS011;7323;50.848;4.334;2023-03-11T16:08:50;4.70;;;1.73;;
14474;SDS011;7323;50.848;4.334;2023-03-11T16:11:19;5.43;;;1.70;;
14474;SDS011;7323;50.848;4.334;2023-03-11T16:13:47;3.67;;;1.20;;
14474;SDS011;7323;50.848;4.334;2023-03-11T16:16:14;4.37;;;1.53;;
14474;SDS011;7323;50.848;4.334;2023-03-11T16:18:41;5.10;;;1.70;;
14474;SDS011;7323;50.848;4.334;2023-03-11T16:21:08;5.10;;;1.83;;
14474;SDS011;7323;50.848;4.334;2023-03-11T16:23:40;3.10;;;1.60;;
14474;SDS011;7323;50.848;4.334;2023-03-11T16:26:06;3.87;;;1.47;;
14474;SDS011;7323;50.848;4.334;2023-03-11T16:28:34;4.37;;;1.47;;
14474;SDS011;7323;50.848;4.334;2023-03-11T16:31:02;3.67;;;1.30;;
14474;SDS011;7323;50.848;4.334;2023-03-11T16:33:28;3.87;;;1.53;;
14474;SDS011;7323;50.848;4.334;2023-03-11T16:35:54;4.13;;;1.73;;
14474;SDS011;7323;50.848;4.334;2023-03-11T16:38:19;4.37;;;1.30;;
14474;SDS011;7323;50.848;4.334;2023-03-11T16:40:57;6.57;;;1.70;;
14474;SDS011;7323;50.848;4.334;2023-03-11T16:43:29;3.17;;;1.40;;
14474;SDS011;7323;50.848;4.334;2023-03-11T16:45:56;4.63;;;1.60;;
14474;SDS011;7323;50.848;4.334;2023-03-11T16:48:22;4.80;;;1.30;;
14474;SDS011;7323;50.848;4.334;2023-03-11T16:50:48;4.73;;;1.67;;
14474;SDS011;7323;50.848;4.334;2023-03-11T16:53:14;9.33;;;2.47;;
14474;SDS011;7323;50.848;4.334;2023-03-11T16:55:44;5.80;;;1.87;;
14474;SDS011;7323;50.848;4.334;2023-03-11T16:58:12;5.50;;;1.80;;
14474;SDS011;7323;50.848;4.334;2023-03-11T17:00:38;4.67;;;1.70;;